Time,TemperatureF,DewpointF,PressureIn,WindDirection,WindDirectionDegrees,WindSpeedMPH,WindSpeedGustMPH,Humidity,HourlyPrecipIn,Conditions,Clouds,dailyrainin,SolarRadiationWatts/m^2,SoftwareType,DateUTC
2013-08-31 00:00:00,67.3,63.6,29.78,NNE,31,2.0,7.0,88,0.00,,SKC,0.00,0.00,VWS V14.01,2013-08-31 05:00:00,
2013-08-31 00:06:00,67.2,63.5,29.78,NNE,31,0.0,3.0,88,0.00,,SKC,0.00,0.00,VWS V14.01,2013-08-31 05:06:00,
2013-08-31 00:11:00,67.2,63.5,29.78,NNE,31,0.0,0.0,88,0.00,,SKC,0.00,0.00,VWS V14.01,2013-08-31 05:11:00,
2013-08-31 00:16:00,67.2,63.5,29.78,NNE,31,0.0,0.0,88,0.00,,SKC,0.00,0.00,VWS V14.01,2013-08-31 05:16:00,
2013-08-31 00:21:00,67.2,63.5,29.78,NNE,31,0.0,0.0,88,0.00,,SKC,0.00,0.00,VWS V14.01,2013-08-31 05:21:00,
2013-08-31 00:26:00,67.2,63.5,29.78,NNE,31,0.0,0.0,88,0.00,,SKC,0.00,0.00,VWS V14.01,2013-08-31 05:26:00,
2013-08-31 00:31:00,67.2,63.5,29.78,NNE,31,0.0,0.0,88,0.00,,SKC,0.00,0.00,VWS V14.01,2013-08-31 05:31:00,
2013-08-31 00:36:00,67.1,63.4,29.78,NNE,31,1.0,1.0,88,0.00,,SKC,0.00,0.00,VWS V14.01,2013-08-31 05:36:00,
2013-08-31 00:41:00,67.1,63.4,29.77,NNE,31,3.0,3.0,88,0.00,,SKC,0.00,0.00,VWS V14.01,2013-08-31 05:41:00,
2013-08-31 00:46:00,67.0,63.3,29.77,NNE,31,2.0,5.0,88,0.00,,SKC,0.00,0.00,VWS V14.01,2013-08-31 05:46:00,
2013-08-31 00:51:00,66.8,63.5,29.77,NNE,31,0.0,0.0,89,0.00,,SKC,0.00,0.00,VWS V14.01,2013-08-31 05:51:00,
2013-08-31 00:56:00,66.7,63.4,29.76,NNE,31,0.0,0.0,89,0.00,,SKC,0.00,0.00,VWS V14.01,2013-08-31 05:56:00,
2013-08-31 01:01:00,66.5,63.2,29.76,NNE,31,0.0,0.0,89,0.00,,SKC,0.00,0.00,VWS V14.01,2013-08-31 06:01:00,
2013-08-31 01:06:00,66.4,63.4,29.76,NNE,31,1.0,3.0,90,0.00,,SKC,0.00,0.00,VWS V14.01,2013-08-31 06:06:00,
2013-08-31 01:11:00,66.1,63.1,29.76,NNE,31,0.0,1.0,90,0.00,,SKC,0.00,0.00,VWS V14.01,2013-08-31 06:11:00,
2013-08-31 01:16:00,65.8,63.1,29.76,NNE,31,0.0,1.0,91,0.00,,SKC,0.00,0.00,VWS V14.01,2013-08-31 06:16:00,
2013-08-31 01:21:00,65.6,62.9,29.75,NNE,31,3.0,3.0,91,0.00,,SKC,0.00,0.00,VWS V14.01,2013-08-31 06:21:00,
2013-08-31 01:26:00,65.3,62.9,29.75,NNE,31,3.0,4.0,92,0.00,,SKC,0.00,0.00,VWS V14.01,2013-08-31 06:26:00,
2013-08-31 01:31:00,65.2,62.8,29.75,NNE,31,1.0,4.0,92,0.00,,SKC,0.00,0.00,VWS V14.01,2013-08-31 06:31:00,
2013-08-31 01:36:00,65.0,62.6,29.75,NNE,31,0.0,4.0,92,0.00,,SKC,0.00,0.00,VWS V14.01,2013-08-31 06:36:00,
2013-08-31 01:41:00,64.9,62.5,29.75,NNE,31,0.0,0.0,92,0.00,,SKC,0.00,0.00,VWS V14.01,2013-08-31 06:41:00,
2013-08-31 01:46:00,64.9,62.5,29.76,NNE,31,0.0,0.0,92,0.00,,SKC,0.00,0.00,VWS V14.01,2013-08-31 06:46:00,
2013-08-31 01:51:00,64.8,62.7,29.76,NNE,31,0.0,0.0,93,0.00,,SKC,0.00,0.00,VWS V14.01,2013-08-31 06:51:00,
2013-08-31 01:56:00,64.8,62.7,29.76,NNE,31,0.0,0.0,93,0.00,,SKC,0.00,0.00,VWS V14.01,2013-08-31 06:56:00,
2013-08-31 02:01:00,64.7,62.6,29.77,NNE,31,0.0,0.0,93,0.00,,SKC,0.00,0.00,VWS V14.01,2013-08-31 07:01:00,
2013-08-31 02:06:00,64.6,62.5,29.76,NNE,31,0.0,0.0,93,0.00,,SKC,0.00,0.00,VWS V14.01,2013-08-31 07:06:00,
2013-08-31 02:11:00,64.5,62.4,29.76,NNE,31,0.0,0.0,93,0.00,,SKC,0.00,0.00,VWS V14.01,2013-08-31 07:11:00,
2013-08-31 02:16:00,64.4,62.3,29.76,NNE,31,0.0,0.0,93,0.00,,SKC,0.00,0.00,VWS V14.01,2013-08-31 07:16:00,
2013-08-31 02:21:00,64.2,62.1,29.77,NNE,31,0.0,0.0,93,0.00,,SKC,0.00,0.00,VWS V14.01,2013-08-31 07:21:00,
2013-08-31 02:26:00,64.1,62.0,29.77,NNE,31,0.0,0.0,93,0.00,,SKC,0.00,0.00,VWS V14.01,2013-08-31 07:26:00,
2013-08-31 02:32:00,63.9,61.8,29.76,NNE,31,0.0,0.0,93,0.00,,SKC,0.00,0.00,VWS V14.01,2013-08-31 07:32:00,
2013-08-31 02:37:00,63.8,61.7,29.76,NNE,31,0.0,0.0,93,0.00,,SKC,0.00,0.00,VWS V14.01,2013-08-31 07:37:00,
2013-08-31 02:42:00,63.9,62.1,29.76,NNE,31,0.0,0.0,94,0.00,,SKC,0.00,0.00,VWS V14.01,2013-08-31 07:42:00,
2013-08-31 02:47:00,63.8,62.0,29.76,NNE,31,0.0,0.0,94,0.00,,SKC,0.00,0.00,VWS V14.01,2013-08-31 07:47:00,
2013-08-31 02:52:00,63.8,62.0,29.76,NNE,31,0.0,0.0,94,0.00,,SKC,0.00,0.00,VWS V14.01,2013-08-31 07:52:00,
2013-08-31 02:57:00,63.7,62.0,29.76,NNE,31,0.0,0.0,94,0.00,,SKC,0.00,0.00,VWS V14.01,2013-08-31 07:57:00,
2013-08-31 03:02:00,63.6,61.8,29.76,NNE,31,0.0,0.0,94,0.00,,SKC,0.00,0.00,VWS V14.01,2013-08-31 08:02:00,
2013-08-31 03:07:00,63.6,61.8,29.76,NNE,31,0.0,0.0,94,0.00,,SKC,0.00,0.00,VWS V14.01,2013-08-31 08:07:00,
2013-08-31 03:12:00,63.5,61.8,29.77,NNE,31,0.0,0.0,94,0.00,,SKC,0.00,0.00,VWS V14.01,2013-08-31 08:12:00,
2013-08-31 03:17:00,63.5,61.8,29.77,NNE,31,0.0,0.0,94,0.00,,SKC,0.00,0.00,VWS V14.01,2013-08-31 08:17:00,
2013-08-31 03:22:00,63.4,61.7,29.77,NNE,31,0.0,0.0,94,0.00,,SKC,0.00,0.00,VWS V14.01,2013-08-31 08:22:00,
2013-08-31 03:27:00,63.2,61.5,29.77,NNE,31,0.0,0.0,94,0.00,,SKC,0.00,0.00,VWS V14.01,2013-08-31 08:27:00,
2013-08-31 03:32:00,63.1,61.3,29.77,NNE,31,0.0,0.0,94,0.00,,SKC,0.00,0.00,VWS V14.01,2013-08-31 08:32:00,
2013-08-31 03:37:00,63.1,61.3,29.76,NNE,31,2.0,2.0,94,0.00,,SKC,0.00,0.00,VWS V14.01,2013-08-31 08:37:00,
2013-08-31 03:42:00,63.2,61.8,29.76,NNE,31,2.0,4.0,95,0.00,,SKC,0.00,0.00,VWS V14.01,2013-08-31 08:42:00,
2013-08-31 03:47:00,63.1,61.7,29.77,NNE,31,0.0,4.0,95,0.00,,SKC,0.00,0.00,VWS V14.01,2013-08-31 08:47:00,
2013-08-31 03:52:00,63.0,61.5,29.77,NNE,31,0.0,0.0,95,0.00,,SKC,0.00,0.00,VWS V14.01,2013-08-31 08:52:00,
2013-08-31 03:57:00,62.9,61.5,29.77,NNE,31,0.0,1.0,95,0.00,,SKC,0.00,0.00,VWS V14.01,2013-08-31 08:57:00,
2013-08-31 04:02:00,63.1,61.7,29.78,NNE,31,0.0,2.0,95,0.00,,SKC,0.00,0.00,VWS V14.01,2013-08-31 09:02:00,
2013-08-31 04:07:00,63.4,62.0,29.78,NNE,31,2.0,3.0,95,0.00,,SKC,0.00,0.00,VWS V14.01,2013-08-31 09:07:00,
2013-08-31 04:12:00,63.6,62.2,29.78,NNE,31,3.0,4.0,95,0.00,,SKC,0.00,0.00,VWS V14.01,2013-08-31 09:12:00,
2013-08-31 04:17:00,63.7,62.2,29.77,NNE,31,4.0,6.0,95,0.00,,SKC,0.00,0.00,VWS V14.01,2013-08-31 09:17:00,
2013-08-31 04:22:00,63.8,62.3,29.78,NNE,31,3.0,5.0,95,0.00,,SKC,0.00,0.00,VWS V14.01,2013-08-31 09:22:00,
2013-08-31 04:27:00,63.8,62.3,29.78,NNE,31,3.0,5.0,95,0.00,,SKC,0.00,0.00,VWS V14.01,2013-08-31 09:27:00,
2013-08-31 04:32:00,63.8,62.3,29.78,NNE,31,2.0,4.0,95,0.00,,SKC,0.00,0.00,VWS V14.01,2013-08-31 09:32:00,
2013-08-31 04:37:00,63.9,62.4,29.78,NNE,31,5.0,6.0,95,0.00,,SKC,0.00,0.00,VWS V14.01,2013-08-31 09:37:00,
2013-08-31 04:42:00,64.0,62.5,29.78,NNE,19,4.0,8.0,95,0.00,,SKC,0.00,0.00,VWS V14.01,2013-08-31 09:42:00,
2013-08-31 04:47:00,64.1,62.6,29.77,NNE,19,2.0,8.0,95,0.00,,SKC,0.00,0.00,VWS V14.01,2013-08-31 09:47:00,
2013-08-31 04:52:00,64.2,62.7,29.78,NNE,19,4.0,4.0,95,0.00,,SKC,0.00,0.00,VWS V14.01,2013-08-31 09:52:00,
2013-08-31 04:57:00,64.3,62.8,29.77,North,5,7.0,9.0,95,0.00,,SKC,0.00,0.00,VWS V14.01,2013-08-31 09:57:00,
2013-08-31 05:02:00,64.5,62.7,29.77,North,5,4.0,11.0,94,0.00,,SKC,0.00,0.00,VWS V14.01,2013-08-31 10:02:00,
2013-08-31 05:07:00,64.7,62.9,29.77,North,5,6.0,11.0,94,0.00,,SKC,0.00,0.00,VWS V14.01,2013-08-31 10:07:00,
2013-08-31 05:12:00,64.7,62.9,29.76,North,9,7.0,10.0,94,0.00,,SKC,0.00,0.00,VWS V14.01,2013-08-31 10:12:00,
2013-08-31 05:18:00,64.8,63.0,29.76,North,9,5.0,10.0,94,0.00,,SKC,0.00,0.00,VWS V14.01,2013-08-31 10:18:00,
2013-08-31 05:23:00,64.9,62.8,29.76,NNE,24,5.0,8.0,93,0.00,,SKC,0.00,0.00,VWS V14.01,2013-08-31 10:23:00,
2013-08-31 05:28:00,64.9,62.8,29.76,NE,42,7.0,10.0,93,0.00,,SKC,0.00,0.00,VWS V14.01,2013-08-31 10:28:00,
2013-08-31 05:33:00,64.9,62.8,29.76,NNE,28,2.0,6.0,93,0.00,,SKC,0.00,0.00,VWS V14.01,2013-08-31 10:33:00,
2013-08-31 05:38:00,64.9,62.8,29.76,NNE,28,3.0,6.0,93,0.00,,SKC,0.00,0.00,VWS V14.01,2013-08-31 10:38:00,
2013-08-31 05:43:00,64.9,62.8,29.77,NNE,28,0.0,6.0,93,0.00,,SKC,0.00,0.00,VWS V14.01,2013-08-31 10:43:00,
2013-08-31 05:48:00,64.9,62.8,29.77,NNE,28,0.0,6.0,93,0.00,,SKC,0.00,0.00,VWS V14.01,2013-08-31 10:48:00,
2013-08-31 05:53:00,64.9,62.8,29.76,NNE,28,2.0,3.0,93,0.00,,SKC,0.00,0.00,VWS V14.01,2013-08-31 10:53:00,
2013-08-31 05:58:00,64.8,62.7,29.76,NNE,28,5.0,5.0,93,0.00,,SKC,0.00,0.00,VWS V14.01,2013-08-31 10:58:00,
2013-08-31 06:03:00,64.8,62.7,29.76,NNE,28,0.0,5.0,93,0.00,,SKC,0.00,0.00,VWS V14.01,2013-08-31 11:03:00,
2013-08-31 06:08:00,64.7,62.6,29.76,NNE,28,3.0,5.0,93,0.00,,SKC,0.00,0.00,VWS V14.01,2013-08-31 11:08:00,
2013-08-31 06:13:00,64.6,62.5,29.76,NNE,28,0.0,3.0,93,0.00,,SKC,0.00,0.00,VWS V14.01,2013-08-31 11:13:00,
2013-08-31 06:18:00,64.5,62.4,29.76,NNE,28,4.0,4.0,93,0.00,,SKC,0.00,0.00,VWS V14.01,2013-08-31 11:18:00,
2013-08-31 06:23:00,64.3,62.2,29.76,NNE,28,4.0,7.0,93,0.00,,SKC,0.00,5.00,VWS V14.01,2013-08-31 11:23:00,
2013-08-31 06:28:00,64.2,62.1,29.76,NNE,28,4.0,7.0,93,0.00,,SKC,0.00,9.00,VWS V14.01,2013-08-31 11:28:00,
2013-08-31 06:33:00,64.1,62.3,29.76,NNE,28,0.0,6.0,94,0.00,,SKC,0.00,11.00,VWS V14.01,2013-08-31 11:33:00,
2013-08-31 06:38:00,64.1,62.3,29.76,NNE,28,3.0,6.0,94,0.00,,SKC,0.00,12.00,VWS V14.01,2013-08-31 11:38:00,
2013-08-31 06:43:00,64.0,62.2,29.76,NNE,28,5.0,9.0,94,0.00,,SKC,0.00,19.00,VWS V14.01,2013-08-31 11:43:00,
2013-08-31 06:48:00,64.0,62.2,29.76,NNE,29,3.0,9.0,94,0.00,,SKC,0.00,26.00,VWS V14.01,2013-08-31 11:48:00,
2013-08-31 06:53:00,64.1,62.6,29.76,NNE,29,5.0,7.0,95,0.00,,SKC,0.00,37.00,VWS V14.01,2013-08-31 11:53:00,
2013-08-31 06:58:00,64.1,62.6,29.76,NNE,29,6.0,7.0,95,0.00,,SKC,0.00,46.00,VWS V14.01,2013-08-31 11:58:00,
2013-08-31 07:03:00,64.2,62.7,29.76,NNE,30,3.0,6.0,95,0.00,,SKC,0.00,39.00,VWS V14.01,2013-08-31 12:03:00,
2013-08-31 07:08:00,64.2,62.7,29.76,NNE,30,6.0,7.0,95,0.00,,SKC,0.00,47.00,VWS V14.01,2013-08-31 12:08:00,
2013-08-31 07:13:00,64.3,62.8,29.76,NNE,30,4.0,7.0,95,0.00,,SKC,0.00,81.00,VWS V14.01,2013-08-31 12:13:00,
2013-08-31 07:18:00,64.4,62.9,29.76,NNE,30,7.0,8.0,95,0.00,,SKC,0.00,47.00,VWS V14.01,2013-08-31 12:18:00,
2013-08-31 07:23:00,64.6,63.1,29.76,NE,34,6.0,10.0,95,0.00,,SKC,0.00,74.00,VWS V14.01,2013-08-31 12:23:00,
2013-08-31 07:28:00,64.7,63.2,29.76,NNE,30,5.0,10.0,95,0.00,,SKC,0.00,105.00,VWS V14.01,2013-08-31 12:28:00,
2013-08-31 07:33:00,65.1,63.6,29.76,NNE,30,4.0,6.0,95,0.00,,SKC,0.00,121.00,VWS V14.01,2013-08-31 12:33:00,
2013-08-31 07:38:00,65.6,64.1,29.77,NNE,19,4.0,7.0,95,0.00,,SKC,0.00,188.00,VWS V14.01,2013-08-31 12:38:00,
2013-08-31 07:44:00,66.0,64.5,29.77,NNE,22,5.0,7.0,95,0.00,,SKC,0.00,107.00,VWS V14.01,2013-08-31 12:44:00,
2013-08-31 07:49:00,66.0,64.2,29.77,NNE,26,0.0,7.0,94,0.00,,SKC,0.00,97.00,VWS V14.01,2013-08-31 12:49:00,
2013-08-31 07:54:00,66.2,64.4,29.78,NNE,26,0.0,3.0,94,0.00,,SKC,0.00,105.00,VWS V14.01,2013-08-31 12:54:00,
2013-08-31 07:59:00,66.4,64.6,29.78,NNE,28,5.0,8.0,94,0.00,,SKC,0.00,84.00,VWS V14.01,2013-08-31 12:59:00,
2013-08-31 08:04:00,66.4,64.6,29.78,NNE,30,3.0,7.0,94,0.00,,SKC,0.00,83.00,VWS V14.01,2013-08-31 13:04:00,
2013-08-31 08:09:00,66.5,64.7,29.78,NNE,30,0.0,7.0,94,0.00,,SKC,0.00,90.00,VWS V14.01,2013-08-31 13:09:00,
2013-08-31 08:14:00,66.6,64.8,29.78,NNE,30,0.0,4.0,94,0.00,,SKC,0.00,90.00,VWS V14.01,2013-08-31 13:14:00,
2013-08-31 08:19:00,66.8,65.0,29.78,NNE,30,2.0,4.0,94,0.00,,SKC,0.00,93.00,VWS V14.01,2013-08-31 13:19:00,
2013-08-31 08:24:00,67.0,65.2,29.77,NNE,30,3.0,3.0,94,0.00,,SKC,0.00,116.00,VWS V14.01,2013-08-31 13:24:00,
2013-08-31 08:29:00,67.3,65.5,29.77,NNE,30,1.0,6.0,94,0.00,,SKC,0.00,322.00,VWS V14.01,2013-08-31 13:29:00,
2013-08-31 08:34:00,67.9,66.1,29.77,NNE,30,3.0,6.0,94,0.00,,SKC,0.00,341.00,VWS V14.01,2013-08-31 13:34:00,
2013-08-31 08:39:00,68.1,66.0,29.77,NE,40,5.0,7.0,93,0.00,,SKC,0.00,204.00,VWS V14.01,2013-08-31 13:39:00,
2013-08-31 08:44:00,68.3,66.2,29.77,NNE,18,5.0,8.0,93,0.00,,SKC,0.00,192.00,VWS V14.01,2013-08-31 13:44:00,
2013-08-31 08:49:00,68.5,66.4,29.77,NNE,18,0.0,8.0,93,0.00,,SKC,0.00,195.00,VWS V14.01,2013-08-31 13:49:00,
2013-08-31 08:54:00,68.6,66.5,29.77,NNE,24,1.0,7.0,93,0.00,,SKC,0.00,179.00,VWS V14.01,2013-08-31 13:54:00,
2013-08-31 08:59:00,68.6,66.2,29.77,NNE,23,3.0,7.0,92,0.00,,SKC,0.00,199.00,VWS V14.01,2013-08-31 13:59:00,
2013-08-31 09:04:00,68.6,66.2,29.77,NNE,32,6.0,9.0,92,0.00,,SKC,0.00,223.00,VWS V14.01,2013-08-31 14:04:00,
2013-08-31 09:09:00,68.6,66.2,29.77,NNE,33,3.0,9.0,92,0.00,,SKC,0.00,193.00,VWS V14.01,2013-08-31 14:09:00,
2013-08-31 09:14:00,68.9,66.5,29.77,NNE,32,4.0,6.0,92,0.00,,SKC,0.00,369.00,VWS V14.01,2013-08-31 14:14:00,
2013-08-31 09:19:00,69.2,66.8,29.77,NNE,30,3.0,7.0,92,0.00,,SKC,0.00,199.00,VWS V14.01,2013-08-31 14:19:00,
2013-08-31 09:24:00,69.3,66.6,29.77,NNE,30,6.0,8.0,91,0.00,,SKC,0.00,153.00,VWS V14.01,2013-08-31 14:24:00,
2013-08-31 09:29:00,69.3,66.6,29.78,NNE,27,6.0,8.0,91,0.00,,SKC,0.00,116.00,VWS V14.01,2013-08-31 14:29:00,
2013-08-31 09:34:00,69.2,66.5,29.78,NNE,27,7.0,7.0,91,0.00,,SKC,0.00,97.00,VWS V14.01,2013-08-31 14:34:00,
2013-08-31 09:39:00,69.1,66.4,29.78,NNE,27,3.0,7.0,91,0.00,,SKC,0.00,104.00,VWS V14.01,2013-08-31 14:39:00,
2013-08-31 09:44:00,69.2,66.5,29.77,NNE,27,3.0,5.0,91,0.00,,SKC,0.00,120.00,VWS V14.01,2013-08-31 14:44:00,
2013-08-31 09:49:00,69.2,66.5,29.77,NNE,27,0.0,5.0,91,0.00,,SKC,0.00,151.00,VWS V14.01,2013-08-31 14:49:00,
2013-08-31 09:54:00,69.4,66.7,29.77,NNE,27,0.0,4.0,91,0.00,,SKC,0.00,144.00,VWS V14.01,2013-08-31 14:54:00,
2013-08-31 09:59:00,69.6,66.9,29.77,NNE,27,2.0,4.0,91,0.00,,SKC,0.00,97.00,VWS V14.01,2013-08-31 14:59:00,
2013-08-31 10:05:00,69.5,66.4,29.78,NNE,27,3.0,4.0,90,0.00,,SKC,0.00,84.00,VWS V14.01,2013-08-31 15:05:00,
2013-08-31 10:10:00,69.4,66.3,29.77,NNE,27,3.0,6.0,90,0.00,,SKC,0.00,86.00,VWS V14.01,2013-08-31 15:10:00,
2013-08-31 10:15:00,69.4,66.7,29.77,NNE,26,4.0,7.0,91,0.00,,SKC,0.00,125.00,VWS V14.01,2013-08-31 15:15:00,
2013-08-31 10:20:00,69.5,66.8,29.77,NNE,26,3.0,7.0,91,0.00,,SKC,0.00,113.00,VWS V14.01,2013-08-31 15:20:00,
2013-08-31 10:25:00,69.7,67.0,29.77,NNE,26,5.0,6.0,91,0.00,,SKC,0.00,193.00,VWS V14.01,2013-08-31 15:25:00,
2013-08-31 10:30:00,70.0,67.3,29.77,NNE,26,4.0,4.0,91,0.00,,SKC,0.00,394.00,VWS V14.01,2013-08-31 15:30:00,
2013-08-31 10:35:00,70.4,67.3,29.77,NNE,26,2.0,7.0,90,0.00,,SKC,0.00,336.00,VWS V14.01,2013-08-31 15:35:00,
2013-08-31 10:40:00,70.7,67.6,29.77,NE,37,3.0,3.0,90,0.00,,SKC,0.00,262.00,VWS V14.01,2013-08-31 15:40:00,
2013-08-31 10:45:00,71.0,67.6,29.77,NNE,33,8.0,9.0,89,0.00,,SKC,0.00,221.00,VWS V14.01,2013-08-31 15:45:00,
2013-08-31 10:50:00,71.0,67.6,29.77,NNE,28,4.0,4.0,89,0.00,,SKC,0.00,160.00,VWS V14.01,2013-08-31 15:50:00,
2013-08-31 10:55:00,71.0,67.6,29.77,NNE,32,6.0,9.0,89,0.00,,SKC,0.00,241.00,VWS V14.01,2013-08-31 15:55:00,
2013-08-31 11:00:00,71.1,67.7,29.77,NNE,24,5.0,5.0,89,0.00,,SKC,0.00,281.00,VWS V14.01,2013-08-31 16:00:00,
2013-08-31 11:05:00,71.4,68.0,29.77,NNE,26,0.0,7.0,89,0.00,,SKC,0.00,214.00,VWS V14.01,2013-08-31 16:05:00,
2013-08-31 11:10:00,71.6,67.9,29.77,NNE,28,3.0,4.0,88,0.00,,SKC,0.00,288.00,VWS V14.01,2013-08-31 16:10:00,
2013-08-31 11:15:00,71.9,68.2,29.77,NNE,28,6.0,7.0,88,0.00,,SKC,0.00,322.00,VWS V14.01,2013-08-31 16:15:00,
2013-08-31 11:20:00,72.3,68.2,29.76,NNE,26,3.0,8.0,87,0.00,,SKC,0.00,503.00,VWS V14.01,2013-08-31 16:20:00,
2013-08-31 11:25:00,72.7,68.6,29.76,NNE,26,2.0,8.0,87,0.00,,SKC,0.00,269.00,VWS V14.01,2013-08-31 16:25:00,
2013-08-31 11:30:00,73.1,68.3,29.76,NNE,26,2.0,3.0,85,0.00,,SKC,0.00,366.00,VWS V14.01,2013-08-31 16:30:00,
2013-08-31 11:35:00,73.3,68.2,29.76,East,82,4.0,6.0,84,0.00,,SKC,0.00,199.00,VWS V14.01,2013-08-31 16:35:00,
2013-08-31 11:40:00,73.0,67.5,29.76,ESE,105,5.0,7.0,83,0.00,,SKC,0.00,132.00,VWS V14.01,2013-08-31 16:40:00,
2013-08-31 11:45:00,73.0,67.9,29.76,ENE,70,2.0,7.0,84,0.00,,SKC,0.00,141.00,VWS V14.01,2013-08-31 16:45:00,
2013-08-31 11:50:00,73.0,67.9,29.76,NE,45,0.0,5.0,84,0.00,,SKC,0.00,137.00,VWS V14.01,2013-08-31 16:50:00,
2013-08-31 11:55:00,72.9,68.1,29.76,NE,45,0.0,5.0,85,0.00,,SKC,0.00,158.00,VWS V14.01,2013-08-31 16:55:00,
2013-08-31 12:00:00,72.9,68.1,29.76,NE,45,1.0,3.0,85,0.00,,SKC,0.00,156.00,VWS V14.01,2013-08-31 17:00:00,
2013-08-31 12:05:00,73.0,67.9,29.76,NE,46,3.0,4.0,84,0.00,,SKC,0.00,200.00,VWS V14.01,2013-08-31 17:05:00,
2013-08-31 12:10:00,73.2,68.1,29.76,NE,46,3.0,3.0,84,0.00,,SKC,0.00,160.00,VWS V14.01,2013-08-31 17:10:00,
2013-08-31 12:15:00,73.2,68.1,29.76,NE,46,4.0,5.0,84,0.00,,SKC,0.00,142.00,VWS V14.01,2013-08-31 17:15:00,
2013-08-31 12:20:00,73.2,67.7,29.76,ENE,74,6.0,6.0,83,0.00,,SKC,0.00,125.00,VWS V14.01,2013-08-31 17:20:00,
2013-08-31 12:26:00,73.0,67.5,29.76,East,96,7.0,8.0,83,0.00,,SKC,0.00,141.00,VWS V14.01,2013-08-31 17:26:00,
2013-08-31 12:31:00,72.9,67.4,29.77,ESE,105,2.0,6.0,83,0.00,,SKC,0.00,144.00,VWS V14.01,2013-08-31 17:31:00,
2013-08-31 12:36:00,73.0,67.5,29.77,ESE,105,4.0,6.0,83,0.00,,SKC,0.00,169.00,VWS V14.01,2013-08-31 17:36:00,
2013-08-31 12:41:00,73.1,67.6,29.77,ESE,105,4.0,6.0,83,0.00,,SKC,0.00,183.00,VWS V14.01,2013-08-31 17:41:00,
2013-08-31 12:46:00,73.1,67.6,29.77,ESE,105,5.0,7.0,83,0.00,,SKC,0.00,186.00,VWS V14.01,2013-08-31 17:46:00,
2013-08-31 12:51:00,73.1,68.0,29.76,ESE,105,5.0,5.0,84,0.00,,SKC,0.00,195.00,VWS V14.01,2013-08-31 17:51:00,
2013-08-31 12:56:00,73.2,68.1,29.76,East,82,0.0,7.0,84,0.00,,SKC,0.00,155.00,VWS V14.01,2013-08-31 17:56:00,
2013-08-31 13:01:00,73.1,67.6,29.76,East,81,4.0,6.0,83,0.00,,SKC,0.00,163.00,VWS V14.01,2013-08-31 18:01:00,
2013-08-31 13:06:00,73.1,67.6,29.76,East,82,4.0,6.0,83,0.00,,SKC,0.00,207.00,VWS V14.01,2013-08-31 18:06:00,
2013-08-31 13:11:00,73.1,68.0,29.76,ENE,69,3.0,3.0,84,0.00,,SKC,0.00,213.00,VWS V14.01,2013-08-31 18:11:00,
2013-08-31 13:16:00,73.2,68.1,29.76,ENE,67,5.0,5.0,84,0.00,,SKC,0.00,221.00,VWS V14.01,2013-08-31 18:16:00,
2013-08-31 13:21:00,73.3,67.8,29.76,East,83,3.0,8.0,83,0.00,,SKC,0.00,334.00,VWS V14.01,2013-08-31 18:21:00,
2013-08-31 13:26:00,73.4,67.9,29.76,East,96,5.0,8.0,83,0.00,,SKC,0.00,271.00,VWS V14.01,2013-08-31 18:26:00,
2013-08-31 13:31:00,73.3,67.8,29.76,East,91,6.0,7.0,83,0.00,,SKC,0.00,295.00,VWS V14.01,2013-08-31 18:31:00,
2013-08-31 13:36:00,73.3,68.2,29.76,East,90,4.0,7.0,84,0.00,,SKC,0.00,274.00,VWS V14.01,2013-08-31 18:36:00,
2013-08-31 13:41:00,73.6,67.8,29.76,East,88,4.0,11.0,82,0.00,,SKC,0.00,290.00,VWS V14.01,2013-08-31 18:41:00,
2013-08-31 13:46:00,73.6,67.4,29.76,East,93,5.0,11.0,81,0.00,,SKC,0.00,287.00,VWS V14.01,2013-08-31 18:46:00,
2013-08-31 13:51:00,73.8,67.6,29.76,East,90,4.0,5.0,81,0.00,,SKC,0.00,264.00,VWS V14.01,2013-08-31 18:51:00,
2013-08-31 13:56:00,74.0,68.2,29.76,NE,48,2.0,6.0,82,0.00,,SKC,0.00,244.00,VWS V14.01,2013-08-31 18:56:00,
2013-08-31 14:01:00,74.2,68.4,29.76,NE,40,2.0,6.0,82,0.00,,SKC,0.00,267.00,VWS V14.01,2013-08-31 19:01:00,
2013-08-31 14:06:00,74.2,68.0,29.76,NE,42,2.0,6.0,81,0.00,,SKC,0.00,225.00,VWS V14.01,2013-08-31 19:06:00,
2013-08-31 14:11:00,74.2,68.0,29.76,NE,42,0.0,4.0,81,0.00,,SKC,0.00,178.00,VWS V14.01,2013-08-31 19:11:00,
2013-08-31 14:16:00,74.2,68.4,29.76,NE,41,2.0,6.0,82,0.00,,SKC,0.00,142.00,VWS V14.01,2013-08-31 19:16:00,
2013-08-31 14:21:00,74.0,67.8,29.76,NE,41,4.0,4.0,81,0.00,,SKC,0.00,130.00,VWS V14.01,2013-08-31 19:21:00,
2013-08-31 14:26:00,74.0,67.8,29.76,NE,41,0.0,6.0,81,0.00,,SKC,0.00,137.00,VWS V14.01,2013-08-31 19:26:00,
2013-08-31 14:31:00,73.9,67.7,29.76,NE,46,3.0,6.0,81,0.00,,SKC,0.00,120.00,VWS V14.01,2013-08-31 19:31:00,
2013-08-31 14:36:00,73.6,67.8,29.76,ESE,109,4.0,8.0,82,0.00,,SKC,0.00,160.00,VWS V14.01,2013-08-31 19:36:00,
2013-08-31 14:41:00,73.4,67.6,29.76,ESE,108,4.0,4.0,82,0.00,,SKC,0.00,211.00,VWS V14.01,2013-08-31 19:41:00,
2013-08-31 14:46:00,73.5,67.7,29.76,ESE,108,2.0,7.0,82,0.00,,SKC,0.00,272.00,VWS V14.01,2013-08-31 19:46:00,
2013-08-31 14:52:00,73.8,68.0,29.76,ESE,107,5.0,5.0,82,0.00,,SKC,0.00,295.00,VWS V14.01,2013-08-31 19:52:00,
2013-08-31 14:57:00,73.9,67.7,29.76,ESE,107,4.0,6.0,81,0.00,,SKC,0.00,325.00,VWS V14.01,2013-08-31 19:57:00,
2013-08-31 15:02:00,74.0,67.4,29.76,ESE,107,2.0,4.0,80,0.00,,SKC,0.00,318.00,VWS V14.01,2013-08-31 20:02:00,
2013-08-31 15:07:00,74.3,68.1,29.75,ESE,107,5.0,6.0,81,0.00,,SKC,0.00,346.00,VWS V14.01,2013-08-31 20:07:00,
2013-08-31 15:12:00,74.6,68.4,29.75,ESE,107,2.0,5.0,81,0.00,,SKC,0.00,410.00,VWS V14.01,2013-08-31 20:12:00,
2013-08-31 15:17:00,74.7,68.1,29.75,East,94,6.0,7.0,80,0.00,,SKC,0.00,327.00,VWS V14.01,2013-08-31 20:17:00,
2013-08-31 15:22:00,74.6,68.4,29.75,East,92,5.0,7.0,81,0.00,,SKC,0.00,336.00,VWS V14.01,2013-08-31 20:22:00,
2013-08-31 15:27:00,74.6,68.4,29.75,ESE,111,7.0,9.0,81,0.00,,SKC,0.00,664.00,VWS V14.01,2013-08-31 20:27:00,
2013-08-31 15:32:00,74.6,68.4,29.74,ESE,113,8.0,9.0,81,0.00,,SKC,0.00,504.00,VWS V14.01,2013-08-31 20:32:00,
2013-08-31 15:37:00,74.9,67.9,29.74,ESE,103,7.0,9.0,79,0.00,,SKC,0.00,302.00,VWS V14.01,2013-08-31 20:37:00,
2013-08-31 15:42:00,75.0,68.1,29.74,ESE,113,8.0,8.0,79,0.00,,SKC,0.00,640.00,VWS V14.01,2013-08-31 20:42:00,
2013-08-31 15:47:00,75.1,67.8,29.74,ESE,103,5.0,9.0,78,0.00,,SKC,0.00,608.00,VWS V14.01,2013-08-31 20:47:00,
2013-08-31 15:52:00,75.2,68.2,29.73,East,82,2.0,9.0,79,0.00,,SKC,0.00,619.00,VWS V14.01,2013-08-31 20:52:00,
2013-08-31 15:57:00,75.2,68.2,29.73,East,91,6.0,9.0,79,0.00,,SKC,0.00,443.00,VWS V14.01,2013-08-31 20:57:00,
2013-08-31 16:02:00,75.6,68.3,29.73,ENE,57,4.0,6.0,78,0.00,,SKC,0.00,671.00,VWS V14.01,2013-08-31 21:02:00,
2013-08-31 16:07:00,75.9,68.2,29.73,ENE,72,2.0,6.0,77,0.00,,SKC,0.00,469.00,VWS V14.01,2013-08-31 21:07:00,
2013-08-31 16:12:00,75.7,68.0,29.73,East,94,4.0,7.0,77,0.00,,SKC,0.00,336.00,VWS V14.01,2013-08-31 21:12:00,
2013-08-31 16:17:00,75.7,68.0,29.73,ESE,114,4.0,8.0,77,0.00,,SKC,0.00,489.00,VWS V14.01,2013-08-31 21:17:00,
2013-08-31 16:22:00,75.6,67.9,29.73,East,83,1.0,6.0,77,0.00,,SKC,0.00,220.00,VWS V14.01,2013-08-31 21:22:00,
2013-08-31 16:27:00,75.5,68.2,29.73,East,83,4.0,6.0,78,0.00,,SKC,0.00,255.00,VWS V14.01,2013-08-31 21:27:00,
2013-08-31 16:32:00,75.8,68.1,29.73,East,92,5.0,7.0,77,0.00,,SKC,0.00,450.00,VWS V14.01,2013-08-31 21:32:00,
2013-08-31 16:37:00,76.0,67.9,29.72,ESE,103,7.0,8.0,76,0.00,,SKC,0.00,568.00,VWS V14.01,2013-08-31 21:37:00,
2013-08-31 16:42:00,75.8,67.7,29.73,ESE,107,5.0,6.0,76,0.00,,SKC,0.00,323.00,VWS V14.01,2013-08-31 21:42:00,
2013-08-31 16:47:00,75.7,68.0,29.73,East,101,2.0,6.0,77,0.00,,SKC,0.00,193.00,VWS V14.01,2013-08-31 21:47:00,
2013-08-31 16:52:00,76.0,68.3,29.73,East,87,5.0,5.0,77,0.00,,SKC,0.00,192.00,VWS V14.01,2013-08-31 21:52:00,
2013-08-31 16:57:00,75.8,68.1,29.72,East,86,2.0,5.0,77,0.00,,SKC,0.00,190.00,VWS V14.01,2013-08-31 21:57:00,
2013-08-31 17:02:00,75.7,68.0,29.72,NE,53,4.0,5.0,77,0.00,,SKC,0.00,185.00,VWS V14.01,2013-08-31 22:02:00,
2013-08-31 17:07:00,75.6,68.3,29.72,East,98,7.0,7.0,78,0.00,,SKC,0.00,179.00,VWS V14.01,2013-08-31 22:07:00,
2013-08-31 17:13:00,75.3,68.3,29.72,ESE,105,0.0,6.0,79,0.00,,SKC,0.00,172.00,VWS V14.01,2013-08-31 22:13:00,
2013-08-31 17:18:00,75.1,68.2,29.72,East,95,4.0,6.0,79,0.00,,SKC,0.00,153.00,VWS V14.01,2013-08-31 22:18:00,
2013-08-31 17:23:00,74.9,67.6,29.72,East,95,6.0,7.0,78,0.00,,SKC,0.00,244.00,VWS V14.01,2013-08-31 22:23:00,
2013-08-31 17:28:00,74.8,67.5,29.72,East,88,2.0,11.0,78,0.00,,SKC,0.00,227.00,VWS V14.01,2013-08-31 22:28:00,
2013-08-31 17:33:00,74.9,67.6,29.72,East,88,5.0,6.0,78,0.00,,SKC,0.00,134.00,VWS V14.01,2013-08-31 22:33:00,
2013-08-31 17:38:00,74.6,67.7,29.72,East,90,2.0,7.0,79,0.00,,SKC,0.00,107.00,VWS V14.01,2013-08-31 22:38:00,
2013-08-31 17:43:00,74.6,68.0,29.72,East,96,5.0,7.0,80,0.00,,SKC,0.00,123.00,VWS V14.01,2013-08-31 22:43:00,
2013-08-31 17:48:00,74.6,68.0,29.72,East,98,4.0,7.0,80,0.00,,SKC,0.00,220.00,VWS V14.01,2013-08-31 22:48:00,
2013-08-31 17:53:00,74.6,68.0,29.72,East,98,2.0,7.0,80,0.00,,SKC,0.00,88.00,VWS V14.01,2013-08-31 22:53:00,
2013-08-31 17:58:00,74.6,67.3,29.72,NE,54,3.0,7.0,78,0.00,,SKC,0.00,81.00,VWS V14.01,2013-08-31 22:58:00,
2013-08-31 18:03:00,74.3,67.0,29.72,NE,48,5.0,5.0,78,0.00,,SKC,0.00,93.00,VWS V14.01,2013-08-31 23:03:00,
2013-08-31 18:08:00,74.2,67.3,29.72,NE,49,4.0,5.0,79,0.00,,SKC,0.00,90.00,VWS V14.01,2013-08-31 23:08:00,
2013-08-31 18:13:00,74.3,67.4,29.72,NE,49,2.0,4.0,79,0.00,,SKC,0.00,185.00,VWS V14.01,2013-08-31 23:13:00,
2013-08-31 18:18:00,74.3,67.4,29.72,ESE,104,6.0,7.0,79,0.00,,SKC,0.00,158.00,VWS V14.01,2013-08-31 23:18:00,
2013-08-31 18:23:00,74.2,67.3,29.72,East,101,4.0,6.0,79,0.00,,SKC,0.00,139.00,VWS V14.01,2013-08-31 23:23:00,
2013-08-31 18:28:00,74.0,67.1,29.72,East,100,4.0,7.0,79,0.00,,SKC,0.00,116.00,VWS V14.01,2013-08-31 23:28:00,
2013-08-31 18:33:00,73.9,67.0,29.72,East,100,4.0,6.0,79,0.00,,SKC,0.00,98.00,VWS V14.01,2013-08-31 23:33:00,
2013-08-31 18:38:00,73.9,67.3,29.72,East,100,0.0,6.0,80,0.00,,SKC,0.00,88.00,VWS V14.01,2013-08-31 23:38:00,
2013-08-31 18:43:00,73.8,67.2,29.72,East,92,4.0,5.0,80,0.00,,SKC,0.00,76.00,VWS V14.01,2013-08-31 23:43:00,
2013-08-31 18:48:00,73.8,67.2,29.72,East,91,1.0,5.0,80,0.00,,SKC,0.00,62.00,VWS V14.01,2013-08-31 23:48:00,
2013-08-31 18:53:00,73.8,67.2,29.72,East,86,3.0,5.0,80,0.00,,SKC,0.00,49.00,VWS V14.01,2013-08-31 23:53:00,
2013-08-31 18:58:00,73.6,66.7,29.72,East,85,4.0,5.0,79,0.00,,SKC,0.00,39.00,VWS V14.01,2013-08-31 23:58:00,
2013-08-31 19:03:00,73.3,66.8,29.71,East,85,0.0,4.0,80,0.00,,SKC,0.00,30.00,VWS V14.01,2013-09-01 00:03:00,
2013-08-31 19:08:00,73.1,66.6,29.72,East,85,1.0,4.0,80,0.00,,SKC,0.00,21.00,VWS V14.01,2013-09-01 00:08:00,
2013-08-31 19:13:00,72.8,66.3,29.72,East,85,3.0,4.0,80,0.00,,SKC,0.00,12.00,VWS V14.01,2013-09-01 00:13:00,
2013-08-31 19:18:00,72.5,66.3,29.72,East,85,1.0,4.0,81,0.00,,SKC,0.00,9.00,VWS V14.01,2013-09-01 00:18:00,
2013-08-31 19:23:00,72.2,66.1,29.72,East,86,2.0,3.0,81,0.00,,SKC,0.00,5.00,VWS V14.01,2013-09-01 00:23:00,
2013-08-31 19:28:00,72.0,65.9,29.72,East,86,2.0,3.0,81,0.00,,SKC,0.00,0.00,VWS V14.01,2013-09-01 00:28:00,
2013-08-31 19:33:00,71.7,65.9,29.72,East,86,2.0,3.0,82,0.00,,SKC,0.00,0.00,VWS V14.01,2013-09-01 00:33:00,
2013-08-31 19:39:00,71.6,66.2,29.72,East,86,0.0,3.0,83,0.00,,SKC,0.00,0.00,VWS V14.01,2013-09-01 00:39:00,
2013-08-31 19:44:00,71.3,65.9,29.71,East,86,2.0,3.0,83,0.00,,SKC,0.00,0.00,VWS V14.01,2013-09-01 00:44:00,
2013-08-31 19:49:00,71.0,65.9,29.71,East,86,2.0,3.0,84,0.00,,SKC,0.00,0.00,VWS V14.01,2013-09-01 00:49:00,
2013-08-31 19:54:00,70.6,65.9,29.71,East,86,2.0,3.0,85,0.00,,SKC,0.00,0.00,VWS V14.01,2013-09-01 00:54:00,
2013-08-31 19:59:00,70.4,65.7,29.72,East,86,2.0,4.0,85,0.00,,SKC,0.00,0.00,VWS V14.01,2013-09-01 00:59:00,
2013-08-31 20:04:00,70.3,65.6,29.72,East,86,2.0,3.0,85,0.00,,SKC,0.00,0.00,VWS V14.01,2013-09-01 01:04:00,
2013-08-31 20:09:00,70.1,65.4,29.72,East,86,0.0,3.0,85,0.00,,SKC,0.00,0.00,VWS V14.01,2013-09-01 01:09:00,
2013-08-31 20:14:00,70.0,65.3,29.72,East,86,0.0,1.0,85,0.00,,SKC,0.00,0.00,VWS V14.01,2013-09-01 01:14:00,
2013-08-31 20:19:00,69.9,65.2,29.73,East,86,0.0,1.0,85,0.00,,SKC,0.00,0.00,VWS V14.01,2013-09-01 01:19:00,
2013-08-31 20:24:00,69.7,65.3,29.73,East,86,0.0,0.0,86,0.00,,SKC,0.00,0.00,VWS V14.01,2013-09-01 01:24:00,
2013-08-31 20:29:00,69.6,65.2,29.74,East,86,0.0,0.0,86,0.00,,SKC,0.00,0.00,VWS V14.01,2013-09-01 01:29:00,
2013-08-31 20:34:00,69.4,65.0,29.74,East,86,0.0,0.0,86,0.00,,SKC,0.00,0.00,VWS V14.01,2013-09-01 01:34:00,
2013-08-31 20:39:00,69.1,64.7,29.75,East,86,0.0,0.0,86,0.00,,SKC,0.00,0.00,VWS V14.01,2013-09-01 01:39:00,
2013-08-31 20:44:00,68.7,64.7,29.76,East,86,0.0,0.0,87,0.00,,SKC,0.00,0.00,VWS V14.01,2013-09-01 01:44:00,
2013-08-31 20:49:00,68.3,64.3,29.76,East,86,0.0,0.0,87,0.00,,SKC,0.00,0.00,VWS V14.01,2013-09-01 01:49:00,
2013-08-31 20:54:00,68.0,64.3,29.76,East,86,0.0,0.0,88,0.00,,SKC,0.00,0.00,VWS V14.01,2013-09-01 01:54:00,
2013-08-31 20:59:00,67.7,64.3,29.76,East,86,0.0,0.0,89,0.00,,SKC,0.00,0.00,VWS V14.01,2013-09-01 01:59:00,
2013-08-31 21:04:00,67.4,64.1,29.76,East,86,0.0,0.0,89,0.00,,SKC,0.00,0.00,VWS V14.01,2013-09-01 02:04:00,
2013-08-31 21:09:00,67.3,64.3,29.76,East,86,0.0,0.0,90,0.00,,SKC,0.00,0.00,VWS V14.01,2013-09-01 02:09:00,
2013-08-31 21:14:00,67.0,64.0,29.76,East,86,0.0,0.0,90,0.00,,SKC,0.00,0.00,VWS V14.01,2013-09-01 02:14:00,
2013-08-31 21:19:00,66.8,63.8,29.77,East,86,0.0,0.0,90,0.00,,SKC,0.00,0.00,VWS V14.01,2013-09-01 02:19:00,
2013-08-31 21:24:00,66.5,63.5,29.77,East,86,0.0,0.0,90,0.00,,SKC,0.00,0.00,VWS V14.01,2013-09-01 02:24:00,
2013-08-31 21:29:00,66.3,63.6,29.77,East,86,0.0,0.0,91,0.00,,SKC,0.00,0.00,VWS V14.01,2013-09-01 02:29:00,
2013-08-31 21:34:00,66.1,63.4,29.77,East,86,0.0,1.0,91,0.00,,SKC,0.00,0.00,VWS V14.01,2013-09-01 02:34:00,
2013-08-31 21:39:00,66.0,63.3,29.77,East,86,0.0,1.0,91,0.00,,SKC,0.00,0.00,VWS V14.01,2013-09-01 02:39:00,
2013-08-31 21:44:00,65.8,63.1,29.77,East,86,0.0,0.0,91,0.00,,SKC,0.00,0.00,VWS V14.01,2013-09-01 02:44:00,
2013-08-31 21:49:00,65.5,62.8,29.77,East,86,0.0,1.0,91,0.00,,SKC,0.00,0.00,VWS V14.01,2013-09-01 02:49:00,
2013-08-31 21:54:00,65.2,62.8,29.77,East,86,0.0,0.0,92,0.00,,SKC,0.00,0.00,VWS V14.01,2013-09-01 02:54:00,
2013-08-31 21:59:00,65.0,62.6,29.76,East,86,0.0,0.0,92,0.00,,SKC,0.00,0.00,VWS V14.01,2013-09-01 02:59:00,
2013-08-31 22:04:00,64.9,62.8,29.76,East,86,0.0,0.0,93,0.00,,SKC,0.00,0.00,VWS V14.01,2013-09-01 03:04:00,
2013-08-31 22:09:00,64.7,62.6,29.76,East,86,0.0,1.0,93,0.00,,SKC,0.00,0.00,VWS V14.01,2013-09-01 03:09:00,
2013-08-31 22:15:00,64.5,62.4,29.76,East,86,2.0,3.0,93,0.00,,SKC,0.00,0.00,VWS V14.01,2013-09-01 03:15:00,
2013-08-31 22:20:00,64.4,62.6,29.77,East,86,2.0,4.0,94,0.00,,SKC,0.00,0.00,VWS V14.01,2013-09-01 03:20:00,
2013-08-31 22:25:00,64.3,62.5,29.76,East,86,0.0,3.0,94,0.00,,SKC,0.00,0.00,VWS V14.01,2013-09-01 03:25:00,
2013-08-31 22:30:00,64.3,62.5,29.76,East,86,0.0,3.0,94,0.00,,SKC,0.00,0.00,VWS V14.01,2013-09-01 03:30:00,
2013-08-31 22:35:00,64.1,62.6,29.76,East,86,0.0,0.0,95,0.00,,SKC,0.00,0.00,VWS V14.01,2013-09-01 03:35:00,
2013-08-31 22:40:00,64.0,62.5,29.76,East,85,0.0,0.0,95,0.00,,SKC,0.00,0.00,VWS V14.01,2013-09-01 03:40:00,
2013-08-31 22:45:00,64.0,62.5,29.76,East,85,0.0,0.0,95,0.00,,SKC,0.00,0.00,VWS V14.01,2013-09-01 03:45:00,
2013-08-31 22:50:00,64.0,62.5,29.76,East,86,2.0,2.0,95,0.00,,SKC,0.00,0.00,VWS V14.01,2013-09-01 03:50:00,
2013-08-31 22:55:00,64.0,62.5,29.76,East,85,3.0,3.0,95,0.00,,SKC,0.00,0.00,VWS V14.01,2013-09-01 03:55:00,
2013-08-31 23:00:00,63.9,62.4,29.75,East,85,2.0,4.0,95,0.00,,SKC,0.00,0.00,VWS V14.01,2013-09-01 04:00:00,
2013-08-31 23:01:00,63.8,62.3,29.75,East,85,2.0,3.0,95,0.00,,SKC,0.00,0.00,VWS V14.01,2013-09-01 04:01:00,
2013-08-31 23:02:00,63.8,62.3,29.75,East,86,2.0,3.0,95,0.00,,SKC,0.00,0.00,VWS V14.01,2013-09-01 04:02:00,
2013-08-31 23:07:00,63.8,62.3,29.75,East,86,1.0,3.0,95,0.00,,SKC,0.00,0.00,VWS V14.01,2013-09-01 04:07:00,
2013-08-31 23:10:00,63.8,62.6,29.75,East,86,2.0,4.0,96,0.00,,SKC,0.00,0.00,VWS V14.01,2013-09-01 04:10:00,
2013-08-31 23:15:00,63.6,62.2,29.75,East,86,0.0,2.0,95,0.00,,SKC,0.00,0.00,VWS V14.01,2013-09-01 04:15:00,
2013-08-31 23:20:00,63.3,61.8,29.75,East,86,0.0,0.0,95,0.00,,SKC,0.00,0.00,VWS V14.01,2013-09-01 04:20:00,
2013-08-31 23:25:00,62.9,61.5,29.75,East,86,2.0,3.0,95,0.00,,SKC,0.00,0.00,VWS V14.01,2013-09-01 04:25:00,
2013-08-31 23:30:00,62.6,61.2,29.75,East,86,2.0,2.0,95,0.00,,SKC,0.00,0.00,VWS V14.01,2013-09-01 04:30:00,
2013-08-31 23:35:00,62.4,61.2,29.74,East,86,2.0,2.0,96,0.00,,SKC,0.00,0.00,VWS V14.01,2013-09-01 04:35:00,
2013-08-31 23:40:00,62.2,61.0,29.74,East,85,0.0,0.0,96,0.00,,SKC,0.00,0.00,VWS V14.01,2013-09-01 04:40:00,
2013-08-31 23:45:00,62.1,61.0,29.74,East,85,0.0,1.0,96,0.00,,SKC,0.00,0.00,VWS V14.01,2013-09-01 04:45:00,
2013-08-31 23:50:00,62.2,61.0,29.74,East,86,0.0,0.0,96,0.00,,SKC,0.00,0.00,VWS V14.01,2013-09-01 04:50:00,
2013-08-31 23:55:00,62.0,60.8,29.73,East,86,0.0,0.0,96,0.00,,SKC,0.00,0.00,VWS V14.01,2013-09-01 04:55:00,